Time,TemperatureF,DewpointF,PressureIn,WindDirection,WindDirectionDegrees,WindSpeedMPH,WindSpeedGustMPH,Humidity,HourlyPrecipIn,Conditions,Clouds,dailyrainin,SoftwareType,DateUTC
2013-09-05 00:22:00,64.0,-99.9,-100.00,NNE,21,1.0,2.0,-999,-99.99,,,-99.99,,2013-09-05 06:22:00,
2013-09-05 00:32:00,64.0,-99.9,-100.00,NNE,21,1.0,2.0,-999,-99.99,,,-99.99,,2013-09-05 06:32:00,
2013-09-05 00:40:00,61.0,-99.9,-100.00,NE,54,0.0,1.0,-999,-99.99,,,-99.99,,2013-09-05 06:40:00,
2013-09-05 01:23:00,61.0,-99.9,-100.00,NE,54,0.0,1.0,-999,-99.99,,,-99.99,,2013-09-05 07:23:00,
2013-09-05 01:32:00,61.0,-99.9,-100.00,NE,54,0.0,1.0,-999,-99.99,,,-99.99,,2013-09-05 07:32:00,
2013-09-05 01:40:00,61.0,-99.9,-100.00,NE,51,0.0,1.0,-999,-99.99,,,-99.99,,2013-09-05 07:40:00,
2013-09-05 02:22:00,61.0,-99.9,-100.00,NE,51,0.0,1.0,-999,-99.99,,,-99.99,,2013-09-05 08:22:00,
2013-09-05 02:32:00,61.0,-99.9,-100.00,NE,51,0.0,1.0,-999,-99.99,,,-99.99,,2013-09-05 08:32:00,
2013-09-05 02:40:00,57.0,-99.9,-100.00,North,3,1.0,2.0,-999,-99.99,,,-99.99,,2013-09-05 08:40:00,
2013-09-05 03:22:00,57.0,-99.9,-100.00,North,3,1.0,2.0,-999,-99.99,,,-99.99,,2013-09-05 09:22:00,
2013-09-05 03:33:00,57.0,-99.9,-100.00,North,3,1.0,2.0,-999,-99.99,,,-99.99,,2013-09-05 09:33:00,
2013-09-05 03:40:00,55.0,-99.9,-100.00,NE,49,2.0,2.0,-999,-99.99,,,-99.99,,2013-09-05 09:40:00,
2013-09-05 04:23:00,55.0,-99.9,-100.00,NE,49,2.0,2.0,-999,-99.99,,,-99.99,,2013-09-05 10:23:00,
2013-09-05 04:33:00,55.0,-99.9,-100.00,NE,49,2.0,2.0,-999,-99.99,,,-99.99,,2013-09-05 10:33:00,
2013-09-05 04:40:00,55.0,-99.9,-100.00,NE,35,1.0,1.0,-999,-99.99,,,-99.99,,2013-09-05 10:40:00,
2013-09-05 05:22:00,55.0,-99.9,-100.00,NE,35,1.0,1.0,-999,-99.99,,,-99.99,,2013-09-05 11:22:00,
2013-09-05 05:34:00,55.0,-99.9,-100.00,NE,35,1.0,1.0,-999,-99.99,,,-99.99,,2013-09-05 11:34:00,
2013-09-05 06:22:00,55.0,-99.9,-100.00,NE,36,0.0,1.0,-999,-99.99,,,-99.99,,2013-09-05 12:22:00,
2013-09-05 06:32:00,55.0,-99.9,-100.00,NE,36,0.0,1.0,-999,-99.99,,,-99.99,,2013-09-05 12:32:00,
2013-09-05 07:22:00,55.0,-99.9,-100.00,NE,45,2.0,2.0,-999,-99.99,,,-99.99,,2013-09-05 13:22:00,
2013-09-05 07:32:00,55.0,-99.9,-100.00,NE,45,2.0,2.0,-999,-99.99,,,-99.99,,2013-09-05 13:32:00,
2013-09-05 08:22:00,59.0,-99.9,-100.00,North,5,3.0,4.0,-999,-99.99,,,-99.99,,2013-09-05 14:22:00,
2013-09-05 08:32:00,59.0,-99.9,-100.00,North,5,3.0,4.0,-999,-99.99,,,-99.99,,2013-09-05 14:32:00,
2013-09-05 09:22:00,64.0,-99.9,-100.00,NNE,17,3.0,4.0,-999,-99.99,,,-99.99,,2013-09-05 15:22:00,
2013-09-05 09:34:00,64.0,-99.9,-100.00,NNE,17,3.0,4.0,-999,-99.99,,,-99.99,,2013-09-05 15:34:00,
2013-09-05 10:24:00,64.0,-99.9,-100.00,North,9,3.0,5.0,-999,-99.99,,,-99.99,,2013-09-05 16:24:00,
2013-09-05 10:33:00,64.0,-99.9,-100.00,North,9,3.0,5.0,-999,-99.99,,,-99.99,,2013-09-05 16:33:00,
2013-09-05 11:23:00,68.0,-99.9,-100.00,NNE,29,3.0,4.0,-999,-99.99,,,-99.99,,2013-09-05 17:23:00,
2013-09-05 11:34:00,68.0,-99.9,-100.00,NNE,29,3.0,4.0,-999,-99.99,,,-99.99,,2013-09-05 17:34:00,
2013-09-05 12:22:00,73.0,-99.9,-100.00,NNE,12,5.0,8.0,-999,-99.99,,,-99.99,,2013-09-05 18:22:00,
2013-09-05 12:32:00,73.0,-99.9,-100.00,NNE,12,5.0,8.0,-999,-99.99,,,-99.99,,2013-09-05 18:32:00,
2013-09-05 13:22:00,75.0,-99.9,-100.00,East,99,4.0,5.0,-999,-99.99,,,-99.99,,2013-09-05 19:22:00,
2013-09-05 13:32:00,75.0,-99.9,-100.00,East,99,4.0,5.0,-999,-99.99,,,-99.99,,2013-09-05 19:32:00,
2013-09-05 14:22:00,75.0,-99.9,-100.00,ENE,58,0.0,1.0,-999,-99.99,,,-99.99,,2013-09-05 20:22:00,
2013-09-05 14:32:00,75.0,-99.9,-100.00,ENE,58,0.0,1.0,-999,-99.99,,,-99.99,,2013-09-05 20:32:00,
2013-09-05 15:22:00,72.0,-99.9,-100.00,East,85,2.0,3.0,-999,-99.99,,,-99.99,,2013-09-05 21:22:00,
2013-09-05 15:34:00,72.0,-99.9,-100.00,East,85,2.0,3.0,-999,-99.99,,,-99.99,,2013-09-05 21:34:00,
2013-09-05 16:24:00,73.0,-99.9,-100.00,NNE,14,5.0,7.0,-999,-99.99,,,-99.99,,2013-09-05 22:24:00,
2013-09-05 16:33:00,73.0,-99.9,-100.00,NNE,14,5.0,7.0,-999,-99.99,,,-99.99,,2013-09-05 22:33:00,
2013-09-05 17:23:00,73.0,-99.9,-100.00,NNE,26,4.0,5.0,-999,-99.99,,,-99.99,,2013-09-05 23:23:00,
2013-09-05 17:34:00,73.0,-99.9,-100.00,NNE,26,4.0,5.0,-999,-99.99,,,-99.99,,2013-09-05 23:34:00,
2013-09-05 19:22:00,68.0,-99.9,-100.00,NNE,27,2.0,3.0,-999,-99.99,,,-99.99,,2013-09-06 01:22:00,
2013-09-05 19:30:00,68.0,-99.9,-100.00,East,90,1.0,1.0,-999,-99.99,,,-99.99,,2013-09-06 01:30:00,
2013-09-05 19:32:00,68.0,-99.9,-100.00,NNE,27,2.0,3.0,-999,-99.99,,,-99.99,,2013-09-06 01:32:00,
2013-09-05 20:22:00,68.0,-99.9,-100.00,East,90,1.0,1.0,-999,-99.99,,,-99.99,,2013-09-06 02:22:00,
2013-09-05 20:30:00,64.0,-99.9,-100.00,NE,39,1.0,2.0,-999,-99.99,,,-99.99,,2013-09-06 02:30:00,
2013-09-05 21:22:00,64.0,-99.9,-100.00,NE,39,1.0,2.0,-999,-99.99,,,-99.99,,2013-09-06 03:22:00,
2013-09-05 21:30:00,63.0,-99.9,-100.00,East,81,2.0,3.0,-999,-99.99,,,-99.99,,2013-09-06 03:30:00,
2013-09-05 22:23:00,63.0,-99.9,-100.00,East,81,2.0,3.0,-999,-99.99,,,-99.99,,2013-09-06 04:23:00,
2013-09-05 22:30:00,59.0,-99.9,-100.00,NNE,22,2.0,2.0,-999,-99.99,,,-99.99,,2013-09-06 04:30:00,
2013-09-05 23:23:00,59.0,-99.9,-100.00,NNE,22,2.0,2.0,-999,-99.99,,,-99.99,,2013-09-06 05:23:00,